sensor_id;sensor_type;location;lat;lon;timestamp;P1;durP1;ratioP1;P2;durP2;ratioP2
41883;SDS011;27566;50.930;5.328;2023-06-26T00:02:14;10.88;;;6.68;;
41883;SDS011;27566;50.930;5.328;2023-06-26T00:04:41;8.77;;;6.18;;
41883;SDS011;27566;50.930;5.328;2023-06-26T00:07:08;9.13;;;6.82;;
41883;SDS011;27566;50.930;5.328;2023-06-26T00:09:34;9.07;;;5.82;;
41883;SDS011;27566;50.930;5.328;2023-06-26T00:12:00;9.70;;;6.60;;
41883;SDS011;27566;50.930;5.328;2023-06-26T00:14:26;11.38;;;6.32;;
41883;SDS011;27566;50.930;5.328;2023-06-26T00:16:52;12.07;;;6.53;;
41883;SDS011;27566;50.930;5.328;2023-06-26T00:19:18;7.80;;;5.35;;
41883;SDS011;27566;50.930;5.328;2023-06-26T00:21:44;7.72;;;5.93;;
41883;SDS011;27566;50.930;5.328;2023-06-26T00:24:15;10.25;;;5.72;;
41883;SDS011;27566;50.930;5.328;2023-06-26T00:26:42;8.70;;;6.25;;
41883;SDS011;27566;50.930;5.328;2023-06-26T00:29:10;7.88;;;5.43;;
41883;SDS011;27566;50.930;5.328;2023-06-26T00:31:36;9.15;;;5.80;;
41883;SDS011;27566;50.930;5.328;2023-06-26T00:34:03;8.88;;;6.05;;
41883;SDS011;27566;50.930;5.328;2023-06-26T00:36:29;10.07;;;6.50;;
41883;SDS011;27566;50.930;5.328;2023-06-26T00:38:54;7.93;;;5.50;;
41883;SDS011;27566;50.930;5.328;2023-06-26T00:41:20;7.97;;;5.47;;
41883;SDS011;27566;50.930;5.328;2023-06-26T00:43:46;8.07;;;5.70;;
41883;SDS011;27566;50.930;5.328;2023-06-26T00:46:12;8.00;;;5.78;;
41883;SDS011;27566;50.930;5.328;2023-06-26T00:48:39;9.70;;;6.45;;
41883;SDS011;27566;50.930;5.328;2023-06-26T00:51:07;8.73;;;5.32;;
41883;SDS011;27566;50.930;5.328;2023-06-26T00:53:33;8.52;;;5.78;;
41883;SDS011;27566;50.930;5.328;2023-06-26T00:56:00;10.20;;;6.82;;
41883;SDS011;27566;50.930;5.328;2023-06-26T00:58:28;8.48;;;6.10;;
41883;SDS011;27566;50.930;5.328;2023-06-26T01:00:54;9.00;;;6.78;;
41883;SDS011;27566;50.930;5.328;2023-06-26T01:03:21;9.60;;;5.65;;
41883;SDS011;27566;50.930;5.328;2023-06-26T01:05:49;9.07;;;6.22;;
41883;SDS011;27566;50.930;5.328;2023-06-26T01:08:17;9.23;;;5.93;;
41883;SDS011;27566;50.930;5.328;2023-06-26T01:10:44;8.05;;;5.47;;
41883;SDS011;27566;50.930;5.328;2023-06-26T01:13:11;7.28;;;5.40;;
41883;SDS011;27566;50.930;5.328;2023-06-26T01:15:39;7.93;;;4.95;;
41883;SDS011;27566;50.930;5.328;2023-06-26T01:18:05;8.80;;;5.40;;
41883;SDS011;27566;50.930;5.328;2023-06-26T01:20:32;9.23;;;5.90;;
41883;SDS011;27566;50.930;5.328;2023-06-26T01:23:29;8.60;;;5.22;;
41883;SDS011;27566;50.930;5.328;2023-06-26T01:26:10;12.68;;;6.20;;
41883;SDS011;27566;50.930;5.328;2023-06-26T01:28:42;11.02;;;6.10;;
41883;SDS011;27566;50.930;5.328;2023-06-26T01:31:08;10.90;;;5.60;;
41883;SDS011;27566;50.930;5.328;2023-06-26T01:33:36;7.15;;;5.40;;
41883;SDS011;27566;50.930;5.328;2023-06-26T01:36:03;10.00;;;5.32;;
41883;SDS011;27566;50.930;5.328;2023-06-26T01:38:29;9.55;;;5.32;;
41883;SDS011;27566;50.930;5.328;2023-06-26T01:40:55;8.23;;;5.25;;
41883;SDS011;27566;50.930;5.328;2023-06-26T01:43:24;8.52;;;5.22;;
41883;SDS011;27566;50.930;5.328;2023-06-26T01:46:18;10.15;;;5.78;;
41883;SDS011;27566;50.930;5.328;2023-06-26T01:48:53;9.40;;;5.60;;
41883;SDS011;27566;50.930;5.328;2023-06-26T01:51:32;10.70;;;5.87;;
41883;SDS011;27566;50.930;5.328;2023-06-26T01:54:07;13.77;;;5.72;;
41883;SDS011;27566;50.930;5.328;2023-06-26T01:59:05;13.52;;;7.38;;
41883;SDS011;27566;50.930;5.328;2023-06-26T02:01:32;9.63;;;5.95;;
41883;SDS011;27566;50.930;5.328;2023-06-26T02:03:59;11.68;;;6.15;;
41883;SDS011;27566;50.930;5.328;2023-06-26T02:06:25;11.48;;;7.07;;
41883;SDS011;27566;50.930;5.328;2023-06-26T02:08:51;8.63;;;5.22;;
41883;SDS011;27566;50.930;5.328;2023-06-26T02:11:16;8.32;;;6.22;;
41883;SDS011;27566;50.930;5.328;2023-06-26T02:13:42;11.43;;;5.78;;
41883;SDS011;27566;50.930;5.328;2023-06-26T02:16:08;8.60;;;5.85;;
41883;SDS011;27566;50.930;5.328;2023-06-26T02:18:34;8.18;;;5.43;;
41883;SDS011;27566;50.930;5.328;2023-06-26T02:21:00;10.02;;;5.18;;
41883;SDS011;27566;50.930;5.328;2023-06-26T02:23:28;7.13;;;4.75;;
41883;SDS011;27566;50.930;5.328;2023-06-26T02:25:54;10.32;;;6.35;;
41883;SDS011;27566;50.930;5.328;2023-06-26T02:28:20;9.52;;;5.22;;
41883;SDS011;27566;50.930;5.328;2023-06-26T02:30:46;9.68;;;4.93;;
41883;SDS011;27566;50.930;5.328;2023-06-26T02:33:12;10.98;;;5.20;;
41883;SDS011;27566;50.930;5.328;2023-06-26T02:35:38;8.98;;;5.38;;
41883;SDS011;27566;50.930;5.328;2023-06-26T02:38:04;9.68;;;5.30;;
41883;SDS011;27566;50.930;5.328;2023-06-26T02:40:29;7.22;;;4.47;;
41883;SDS011;27566;50.930;5.328;2023-06-26T02:42:55;9.65;;;5.45;;
41883;SDS011;27566;50.930;5.328;2023-06-26T02:45:21;9.30;;;5.32;;
41883;SDS011;27566;50.930;5.328;2023-06-26T02:47:47;11.38;;;5.15;;
41883;SDS011;27566;50.930;5.328;2023-06-26T02:50:13;7.38;;;4.75;;
41883;SDS011;27566;50.930;5.328;2023-06-26T02:52:39;8.10;;;4.75;;
41883;SDS011;27566;50.930;5.328;2023-06-26T02:55:05;8.63;;;4.53;;
41883;SDS011;27566;50.930;5.328;2023-06-26T02:57:31;10.35;;;4.72;;
41883;SDS011;27566;50.930;5.328;2023-06-26T02:59:57;10.80;;;4.75;;
41883;SDS011;27566;50.930;5.328;2023-06-26T03:02:23;8.52;;;4.15;;
41883;SDS011;27566;50.930;5.328;2023-06-26T03:04:49;6.57;;;4.50;;
41883;SDS011;27566;50.930;5.328;2023-06-26T03:07:15;7.22;;;4.50;;
41883;SDS011;27566;50.930;5.328;2023-06-26T03:09:41;9.10;;;4.22;;
41883;SDS011;27566;50.930;5.328;2023-06-26T03:12:07;7.28;;;4.85;;
41883;SDS011;27566;50.930;5.328;2023-06-26T03:14:34;7.38;;;4.07;;
41883;SDS011;27566;50.930;5.328;2023-06-26T03:17:00;8.98;;;5.57;;
41883;SDS011;27566;50.930;5.328;2023-06-26T03:19:29;7.68;;;4.03;;
41883;SDS011;27566;50.930;5.328;2023-06-26T03:21:55;7.88;;;4.60;;
41883;SDS011;27566;50.930;5.328;2023-06-26T03:24:21;7.05;;;4.38;;
41883;SDS011;27566;50.930;5.328;2023-06-26T03:26:47;7.07;;;4.05;;
41883;SDS011;27566;50.930;5.328;2023-06-26T03:29:13;11.77;;;4.10;;
41883;SDS011;27566;50.930;5.328;2023-06-26T03:31:38;13.68;;;3.83;;
41883;SDS011;27566;50.930;5.328;2023-06-26T03:34:04;8.80;;;5.05;;
41883;SDS011;27566;50.930;5.328;2023-06-26T03:36:30;8.95;;;4.40;;
41883;SDS011;27566;50.930;5.328;2023-06-26T03:38:56;6.95;;;4.57;;
41883;SDS011;27566;50.930;5.328;2023-06-26T03:41:23;8.63;;;4.60;;
41883;SDS011;27566;50.930;5.328;2023-06-26T03:43:49;8.73;;;4.82;;
41883;SDS011;27566;50.930;5.328;2023-06-26T03:46:15;12.00;;;4.90;;
41883;SDS011;27566;50.930;5.328;2023-06-26T03:48:41;7.45;;;3.85;;
41883;SDS011;27566;50.930;5.328;2023-06-26T03:51:07;8.23;;;3.75;;
41883;SDS011;27566;50.930;5.328;2023-06-26T03:53:33;6.88;;;4.80;;
41883;SDS011;27566;50.930;5.328;2023-06-26T03:55:59;7.40;;;4.70;;
41883;SDS011;27566;50.930;5.328;2023-06-26T03:58:25;7.57;;;3.88;;
41883;SDS011;27566;50.930;5.328;2023-06-26T04:00:51;10.23;;;4.50;;
41883;SDS011;27566;50.930;5.328;2023-06-26T04:03:18;7.70;;;4.20;;
41883;SDS011;27566;50.930;5.328;2023-06-26T04:05:44;8.15;;;4.72;;
41883;SDS011;27566;50.930;5.328;2023-06-26T04:08:10;7.70;;;3.67;;
41883;SDS011;27566;50.930;5.328;2023-06-26T04:10:36;7.97;;;4.05;;
41883;SDS011;27566;50.930;5.328;2023-06-26T04:13:02;6.78;;;4.13;;
41883;SDS011;27566;50.930;5.328;2023-06-26T04:15:28;7.63;;;4.07;;
41883;SDS011;27566;50.930;5.328;2023-06-26T04:17:54;12.85;;;4.93;;
41883;SDS011;27566;50.930;5.328;2023-06-26T04:20:20;9.30;;;5.47;;
41883;SDS011;27566;50.930;5.328;2023-06-26T04:22:45;7.88;;;3.72;;
41883;SDS011;27566;50.930;5.328;2023-06-26T04:25:11;8.77;;;3.92;;
41883;SDS011;27566;50.930;5.328;2023-06-26T04:27:37;7.30;;;4.15;;
41883;SDS011;27566;50.930;5.328;2023-06-26T04:30:04;11.48;;;4.28;;
41883;SDS011;27566;50.930;5.328;2023-06-26T04:32:30;11.80;;;3.83;;
41883;SDS011;27566;50.930;5.328;2023-06-26T04:34:56;9.95;;;3.90;;
41883;SDS011;27566;50.930;5.328;2023-06-26T04:37:22;7.53;;;4.05;;
41883;SDS011;27566;50.930;5.328;2023-06-26T04:39:49;7.63;;;4.78;;
41883;SDS011;27566;50.930;5.328;2023-06-26T04:42:16;8.30;;;4.55;;
41883;SDS011;27566;50.930;5.328;2023-06-26T04:44:41;8.15;;;3.97;;
41883;SDS011;27566;50.930;5.328;2023-06-26T04:47:08;10.48;;;4.10;;
41883;SDS011;27566;50.930;5.328;2023-06-26T04:49:34;13.90;;;4.40;;
41883;SDS011;27566;50.930;5.328;2023-06-26T04:52:00;8.77;;;4.13;;
41883;SDS011;27566;50.930;5.328;2023-06-26T04:54:26;14.27;;;5.35;;
41883;SDS011;27566;50.930;5.328;2023-06-26T04:56:53;7.55;;;4.38;;
41883;SDS011;27566;50.930;5.328;2023-06-26T04:59:19;7.75;;;4.25;;
41883;SDS011;27566;50.930;5.328;2023-06-26T05:01:44;8.40;;;4.30;;
41883;SDS011;27566;50.930;5.328;2023-06-26T05:04:13;7.35;;;4.07;;
41883;SDS011;27566;50.930;5.328;2023-06-26T05:06:40;11.38;;;4.45;;
41883;SDS011;27566;50.930;5.328;2023-06-26T05:09:06;9.77;;;4.43;;
41883;SDS011;27566;50.930;5.328;2023-06-26T05:11:32;7.75;;;3.70;;
41883;SDS011;27566;50.930;5.328;2023-06-26T05:13:58;8.15;;;3.72;;
41883;SDS011;27566;50.930;5.328;2023-06-26T05:16:24;10.93;;;4.55;;
41883;SDS011;27566;50.930;5.328;2023-06-26T05:18:50;11.07;;;5.20;;
41883;SDS011;27566;50.930;5.328;2023-06-26T05:21:17;10.90;;;4.63;;
41883;SDS011;27566;50.930;5.328;2023-06-26T05:23:43;9.15;;;4.15;;
41883;SDS011;27566;50.930;5.328;2023-06-26T05:26:12;8.15;;;4.13;;
41883;SDS011;27566;50.930;5.328;2023-06-26T05:28:38;14.50;;;5.10;;
41883;SDS011;27566;50.930;5.328;2023-06-26T05:31:05;10.35;;;4.03;;
41883;SDS011;27566;50.930;5.328;2023-06-26T05:33:31;9.18;;;3.97;;
41883;SDS011;27566;50.930;5.328;2023-06-26T05:36:02;10.07;;;4.18;;
41883;SDS011;27566;50.930;5.328;2023-06-26T05:38:29;8.45;;;4.38;;
41883;SDS011;27566;50.930;5.328;2023-06-26T05:40:55;10.30;;;3.88;;
41883;SDS011;27566;50.930;5.328;2023-06-26T05:43:21;10.38;;;3.83;;
41883;SDS011;27566;50.930;5.328;2023-06-26T05:45:48;9.50;;;4.07;;
41883;SDS011;27566;50.930;5.328;2023-06-26T05:48:14;12.88;;;3.65;;
41883;SDS011;27566;50.930;5.328;2023-06-26T05:50:40;11.02;;;4.15;;
41883;SDS011;27566;50.930;5.328;2023-06-26T05:53:07;11.07;;;3.75;;
41883;SDS011;27566;50.930;5.328;2023-06-26T05:55:34;12.18;;;4.72;;
41883;SDS011;27566;50.930;5.328;2023-06-26T05:58:01;11.73;;;3.85;;
41883;SDS011;27566;50.930;5.328;2023-06-26T06:00:28;14.82;;;4.53;;
41883;SDS011;27566;50.930;5.328;2023-06-26T06:02:54;9.65;;;4.07;;
41883;SDS011;27566;50.930;5.328;2023-06-26T06:05:20;11.07;;;4.10;;
41883;SDS011;27566;50.930;5.328;2023-06-26T06:07:47;11.38;;;4.15;;
41883;SDS011;27566;50.930;5.328;2023-06-26T06:10:14;12.82;;;3.45;;
41883;SDS011;27566;50.930;5.328;2023-06-26T06:12:39;9.90;;;3.38;;
41883;SDS011;27566;50.930;5.328;2023-06-26T06:15:06;12.02;;;3.88;;
41883;SDS011;27566;50.930;5.328;2023-06-26T06:17:32;7.97;;;3.60;;
41883;SDS011;27566;50.930;5.328;2023-06-26T06:19:58;10.70;;;4.68;;
41883;SDS011;27566;50.930;5.328;2023-06-26T06:22:24;12.40;;;4.22;;
41883;SDS011;27566;50.930;5.328;2023-06-26T06:24:50;8.90;;;3.88;;
41883;SDS011;27566;50.930;5.328;2023-06-26T06:27:16;17.63;;;5.70;;
41883;SDS011;27566;50.930;5.328;2023-06-26T06:29:42;8.85;;;4.03;;
41883;SDS011;27566;50.930;5.328;2023-06-26T06:32:08;13.70;;;4.25;;
41883;SDS011;27566;50.930;5.328;2023-06-26T06:34:34;9.43;;;3.70;;
41883;SDS011;27566;50.930;5.328;2023-06-26T06:37:01;9.10;;;3.22;;
41883;SDS011;27566;50.930;5.328;2023-06-26T06:39:28;10.20;;;3.70;;
41883;SDS011;27566;50.930;5.328;2023-06-26T06:41:54;11.23;;;4.63;;
41883;SDS011;27566;50.930;5.328;2023-06-26T06:44:19;12.85;;;3.47;;
41883;SDS011;27566;50.930;5.328;2023-06-26T06:46:48;8.95;;;3.42;;
41883;SDS011;27566;50.930;5.328;2023-06-26T06:49:14;18.67;;;5.43;;
41883;SDS011;27566;50.930;5.328;2023-06-26T06:51:40;9.55;;;3.78;;
41883;SDS011;27566;50.930;5.328;2023-06-26T06:54:06;10.68;;;3.53;;
41883;SDS011;27566;50.930;5.328;2023-06-26T06:56:32;10.10;;;3.38;;
41883;SDS011;27566;50.930;5.328;2023-06-26T06:58:58;12.88;;;4.57;;
41883;SDS011;27566;50.930;5.328;2023-06-26T07:01:24;9.45;;;3.92;;
41883;SDS011;27566;50.930;5.328;2023-06-26T07:03:50;10.30;;;3.65;;
41883;SDS011;27566;50.930;5.328;2023-06-26T07:06:16;8.98;;;3.00;;
41883;SDS011;27566;50.930;5.328;2023-06-26T07:08:42;6.25;;;3.10;;
41883;SDS011;27566;50.930;5.328;2023-06-26T07:11:08;11.27;;;4.57;;
41883;SDS011;27566;50.930;5.328;2023-06-26T07:13:33;8.02;;;3.17;;
41883;SDS011;27566;50.930;5.328;2023-06-26T07:15:59;10.43;;;3.40;;
41883;SDS011;27566;50.930;5.328;2023-06-26T07:18:25;14.48;;;4.22;;
41883;SDS011;27566;50.930;5.328;2023-06-26T07:20:51;10.88;;;3.75;;
41883;SDS011;27566;50.930;5.328;2023-06-26T07:23:17;9.85;;;3.13;;
41883;SDS011;27566;50.930;5.328;2023-06-26T07:25:43;7.88;;;3.25;;
41883;SDS011;27566;50.930;5.328;2023-06-26T07:28:12;8.13;;;3.08;;
41883;SDS011;27566;50.930;5.328;2023-06-26T07:30:39;9.18;;;3.95;;
41883;SDS011;27566;50.930;5.328;2023-06-26T07:33:05;10.88;;;3.47;;
41883;SDS011;27566;50.930;5.328;2023-06-26T07:35:30;9.05;;;3.10;;
41883;SDS011;27566;50.930;5.328;2023-06-26T07:37:56;10.73;;;2.78;;
41883;SDS011;27566;50.930;5.328;2023-06-26T07:40:22;9.18;;;3.85;;
41883;SDS011;27566;50.930;5.328;2023-06-26T07:42:48;17.17;;;5.40;;
41883;SDS011;27566;50.930;5.328;2023-06-26T07:45:15;10.80;;;3.50;;
41883;SDS011;27566;50.930;5.328;2023-06-26T07:47:41;13.75;;;4.40;;
41883;SDS011;27566;50.930;5.328;2023-06-26T07:50:07;10.63;;;3.63;;
41883;SDS011;27566;50.930;5.328;2023-06-26T07:52:33;10.00;;;2.95;;
41883;SDS011;27566;50.930;5.328;2023-06-26T07:54:59;9.68;;;3.80;;
41883;SDS011;27566;50.930;5.328;2023-06-26T07:57:25;7.47;;;3.03;;
41883;SDS011;27566;50.930;5.328;2023-06-26T07:59:51;7.88;;;2.47;;
41883;SDS011;27566;50.930;5.328;2023-06-26T08:02:17;10.52;;;3.40;;
41883;SDS011;27566;50.930;5.328;2023-06-26T08:04:43;9.18;;;2.90;;
41883;SDS011;27566;50.930;5.328;2023-06-26T08:07:09;10.15;;;2.97;;
41883;SDS011;27566;50.930;5.328;2023-06-26T08:09:35;9.20;;;2.80;;
41883;SDS011;27566;50.930;5.328;2023-06-26T08:12:01;7.45;;;3.35;;
41883;SDS011;27566;50.930;5.328;2023-06-26T08:14:27;8.23;;;3.55;;
41883;SDS011;27566;50.930;5.328;2023-06-26T08:16:54;7.35;;;2.78;;
41883;SDS011;27566;50.930;5.328;2023-06-26T08:19:20;11.88;;;3.88;;
41883;SDS011;27566;50.930;5.328;2023-06-26T08:21:46;12.32;;;3.50;;
41883;SDS011;27566;50.930;5.328;2023-06-26T08:24:12;11.55;;;3.55;;
41883;SDS011;27566;50.930;5.328;2023-06-26T08:26:41;9.35;;;2.80;;
41883;SDS011;27566;50.930;5.328;2023-06-26T08:29:07;9.73;;;3.30;;
41883;SDS011;27566;50.930;5.328;2023-06-26T08:31:36;12.40;;;3.45;;
41883;SDS011;27566;50.930;5.328;2023-06-26T08:34:03;8.68;;;3.78;;
41883;SDS011;27566;50.930;5.328;2023-06-26T08:36:30;9.80;;;3.28;;
41883;SDS011;27566;50.930;5.328;2023-06-26T08:38:56;7.15;;;2.63;;
41883;SDS011;27566;50.930;5.328;2023-06-26T08:41:22;8.15;;;2.80;;
41883;SDS011;27566;50.930;5.328;2023-06-26T08:43:48;9.55;;;3.78;;
41883;SDS011;27566;50.930;5.328;2023-06-26T08:46:16;9.88;;;3.42;;
41883;SDS011;27566;50.930;5.328;2023-06-26T08:48:44;13.85;;;3.47;;
41883;SDS011;27566;50.930;5.328;2023-06-26T08:51:16;8.20;;;3.13;;
41883;SDS011;27566;50.930;5.328;2023-06-26T08:56:24;6.85;;;2.50;;
41883;SDS011;27566;50.930;5.328;2023-06-26T08:59:11;10.15;;;3.30;;
41883;SDS011;27566;50.930;5.328;2023-06-26T09:01:39;9.80;;;3.40;;
41883;SDS011;27566;50.930;5.328;2023-06-26T09:04:06;7.20;;;3.20;;
41883;SDS011;27566;50.930;5.328;2023-06-26T09:06:32;7.50;;;3.05;;
41883;SDS011;27566;50.930;5.328;2023-06-26T09:08:58;10.63;;;2.97;;
41883;SDS011;27566;50.930;5.328;2023-06-26T09:11:24;6.70;;;2.63;;
41883;SDS011;27566;50.930;5.328;2023-06-26T09:13:50;7.05;;;2.83;;
41883;SDS011;27566;50.930;5.328;2023-06-26T09:16:17;9.65;;;2.85;;
41883;SDS011;27566;50.930;5.328;2023-06-26T09:18:45;10.23;;;3.20;;
41883;SDS011;27566;50.930;5.328;2023-06-26T09:21:11;9.00;;;2.63;;
41883;SDS011;27566;50.930;5.328;2023-06-26T09:23:39;4.90;;;2.33;;
41883;SDS011;27566;50.930;5.328;2023-06-26T09:26:06;7.70;;;3.38;;
41883;SDS011;27566;50.930;5.328;2023-06-26T09:28:32;8.50;;;3.17;;
41883;SDS011;27566;50.930;5.328;2023-06-26T09:31:00;6.65;;;2.60;;
41883;SDS011;27566;50.930;5.328;2023-06-26T09:33:32;13.05;;;3.78;;
41883;SDS011;27566;50.930;5.328;2023-06-26T09:36:09;10.77;;;3.35;;
41883;SDS011;27566;50.930;5.328;2023-06-26T09:38:44;9.85;;;3.38;;
41883;SDS011;27566;50.930;5.328;2023-06-26T09:41:10;4.57;;;2.10;;
41883;SDS011;27566;50.930;5.328;2023-06-26T09:43:45;13.10;;;2.58;;
41883;SDS011;27566;50.930;5.328;2023-06-26T09:46:15;6.18;;;2.05;;
41883;SDS011;27566;50.930;5.328;2023-06-26T09:48:42;11.00;;;5.03;;
41883;SDS011;27566;50.930;5.328;2023-06-26T09:54:15;8.10;;;3.03;;
41883;SDS011;27566;50.930;5.328;2023-06-26T09:56:42;7.20;;;2.53;;
41883;SDS011;27566;50.930;5.328;2023-06-26T09:59:08;7.80;;;2.75;;
41883;SDS011;27566;50.930;5.328;2023-06-26T10:01:39;7.07;;;2.28;;
41883;SDS011;27566;50.930;5.328;2023-06-26T10:04:06;5.45;;;2.38;;
41883;SDS011;27566;50.930;5.328;2023-06-26T10:06:36;8.23;;;2.28;;
41883;SDS011;27566;50.930;5.328;2023-06-26T10:09:06;7.18;;;2.38;;
41883;SDS011;27566;50.930;5.328;2023-06-26T10:14:27;9.05;;;2.28;;
41883;SDS011;27566;50.930;5.328;2023-06-26T10:16:57;6.50;;;2.00;;
41883;SDS011;27566;50.930;5.328;2023-06-26T10:19:24;5.68;;;1.80;;
41883;SDS011;27566;50.930;5.328;2023-06-26T10:21:52;4.57;;;1.70;;
41883;SDS011;27566;50.930;5.328;2023-06-26T10:24:19;4.40;;;1.80;;
41883;SDS011;27566;50.930;5.328;2023-06-26T10:26:49;3.92;;;1.85;;
41883;SDS011;27566;50.930;5.328;2023-06-26T10:29:18;4.95;;;2.15;;
41883;SDS011;27566;50.930;5.328;2023-06-26T10:31:48;6.97;;;1.63;;
41883;SDS011;27566;50.930;5.328;2023-06-26T10:34:16;4.50;;;1.77;;
41883;SDS011;27566;50.930;5.328;2023-06-26T10:36:42;5.55;;;1.88;;
41883;SDS011;27566;50.930;5.328;2023-06-26T10:39:08;6.30;;;1.80;;
41883;SDS011;27566;50.930;5.328;2023-06-26T10:41:38;5.45;;;1.67;;
41883;SDS011;27566;50.930;5.328;2023-06-26T10:44:09;4.47;;;1.42;;
41883;SDS011;27566;50.930;5.328;2023-06-26T10:46:51;6.55;;;1.98;;
41883;SDS011;27566;50.930;5.328;2023-06-26T10:49:28;7.20;;;1.65;;
41883;SDS011;27566;50.930;5.328;2023-06-26T10:52:00;3.70;;;1.20;;
41883;SDS011;27566;50.930;5.328;2023-06-26T10:54:30;3.47;;;1.55;;
41883;SDS011;27566;50.930;5.328;2023-06-26T10:56:57;4.50;;;1.70;;
41883;SDS011;27566;50.930;5.328;2023-06-26T10:59:25;6.28;;;1.88;;
41883;SDS011;27566;50.930;5.328;2023-06-26T11:01:56;4.05;;;1.70;;
41883;SDS011;27566;50.930;5.328;2023-06-26T11:07:25;5.23;;;1.43;;
41883;SDS011;27566;50.930;5.328;2023-06-26T11:09:55;5.32;;;1.80;;
41883;SDS011;27566;50.930;5.328;2023-06-26T11:12:36;4.28;;;1.98;;
41883;SDS011;27566;50.930;5.328;2023-06-26T11:15:07;4.93;;;1.75;;
41883;SDS011;27566;50.930;5.328;2023-06-26T11:17:34;6.20;;;2.10;;
41883;SDS011;27566;50.930;5.328;2023-06-26T11:20:00;9.05;;;2.75;;
41883;SDS011;27566;50.930;5.328;2023-06-26T11:22:26;5.63;;;2.53;;
41883;SDS011;27566;50.930;5.328;2023-06-26T11:24:53;6.65;;;2.40;;
41883;SDS011;27566;50.930;5.328;2023-06-26T11:27:19;5.28;;;1.48;;
41883;SDS011;27566;50.930;5.328;2023-06-26T11:29:48;5.47;;;1.40;;
41883;SDS011;27566;50.930;5.328;2023-06-26T11:32:17;3.13;;;1.55;;
41883;SDS011;27566;50.930;5.328;2023-06-26T11:34:43;6.25;;;1.90;;
41883;SDS011;27566;50.930;5.328;2023-06-26T11:37:09;6.13;;;1.50;;
41883;SDS011;27566;50.930;5.328;2023-06-26T11:39:37;5.55;;;1.90;;
41883;SDS011;27566;50.930;5.328;2023-06-26T11:42:03;3.75;;;1.98;;
41883;SDS011;27566;50.930;5.328;2023-06-26T11:44:30;5.15;;;1.67;;
41883;SDS011;27566;50.930;5.328;2023-06-26T11:46:56;4.45;;;1.50;;
41883;SDS011;27566;50.930;5.328;2023-06-26T11:49:23;5.65;;;1.83;;
41883;SDS011;27566;50.930;5.328;2023-06-26T11:51:51;6.72;;;1.80;;
41883;SDS011;27566;50.930;5.328;2023-06-26T11:54:24;3.90;;;2.03;;
41883;SDS011;27566;50.930;5.328;2023-06-26T11:56:57;5.93;;;1.70;;
41883;SDS011;27566;50.930;5.328;2023-06-26T11:59:24;8.77;;;1.85;;
41883;SDS011;27566;50.930;5.328;2023-06-26T12:01:56;5.28;;;1.52;;
41883;SDS011;27566;50.930;5.328;2023-06-26T12:04:22;7.72;;;1.60;;
41883;SDS011;27566;50.930;5.328;2023-06-26T12:06:49;3.20;;;1.50;;
41883;SDS011;27566;50.930;5.328;2023-06-26T12:09:18;4.80;;;1.60;;
41883;SDS011;27566;50.930;5.328;2023-06-26T12:11:46;4.57;;;1.50;;
41883;SDS011;27566;50.930;5.328;2023-06-26T12:14:14;3.95;;;1.67;;
41883;SDS011;27566;50.930;5.328;2023-06-26T12:16:42;4.57;;;1.60;;
41883;SDS011;27566;50.930;5.328;2023-06-26T12:19:08;2.78;;;1.33;;
41883;SDS011;27566;50.930;5.328;2023-06-26T12:24:03;3.70;;;1.40;;
41883;SDS011;27566;50.930;5.328;2023-06-26T12:26:30;4.22;;;1.85;;
41883;SDS011;27566;50.930;5.328;2023-06-26T12:29:04;4.43;;;1.25;;
41883;SDS011;27566;50.930;5.328;2023-06-26T12:31:34;3.67;;;1.33;;
41883;SDS011;27566;50.930;5.328;2023-06-26T12:34:01;5.07;;;1.67;;
41883;SDS011;27566;50.930;5.328;2023-06-26T12:36:27;4.20;;;1.60;;
41883;SDS011;27566;50.930;5.328;2023-06-26T12:38:53;3.75;;;1.80;;
41883;SDS011;27566;50.930;5.328;2023-06-26T12:41:19;5.78;;;1.80;;
41883;SDS011;27566;50.930;5.328;2023-06-26T12:43:49;10.75;;;3.03;;
41883;SDS011;27566;50.930;5.328;2023-06-26T12:46:15;5.93;;;1.80;;
41883;SDS011;27566;50.930;5.328;2023-06-26T12:48:44;2.65;;;1.55;;
41883;SDS011;27566;50.930;5.328;2023-06-26T12:51:14;3.45;;;1.45;;
41883;SDS011;27566;50.930;5.328;2023-06-26T12:53:40;3.65;;;1.17;;
41883;SDS011;27566;50.930;5.328;2023-06-26T12:56:07;5.65;;;1.52;;
41883;SDS011;27566;50.930;5.328;2023-06-26T12:58:34;8.25;;;3.75;;
41883;SDS011;27566;50.930;5.328;2023-06-26T13:01:04;9.43;;;4.95;;
41883;SDS011;27566;50.930;5.328;2023-06-26T13:03:40;7.95;;;3.33;;
41883;SDS011;27566;50.930;5.328;2023-06-26T13:06:06;8.43;;;1.98;;
41883;SDS011;27566;50.930;5.328;2023-06-26T13:08:35;3.78;;;1.85;;
41883;SDS011;27566;50.930;5.328;2023-06-26T13:11:02;4.20;;;1.63;;
41883;SDS011;27566;50.930;5.328;2023-06-26T13:13:28;4.07;;;1.58;;
41883;SDS011;27566;50.930;5.328;2023-06-26T13:15:54;6.00;;;2.15;;
41883;SDS011;27566;50.930;5.328;2023-06-26T13:18:20;4.75;;;1.60;;
41883;SDS011;27566;50.930;5.328;2023-06-26T13:20:46;7.72;;;2.30;;
41883;SDS011;27566;50.930;5.328;2023-06-26T13:23:12;5.15;;;1.67;;
41883;SDS011;27566;50.930;5.328;2023-06-26T13:25:38;5.68;;;1.75;;
41883;SDS011;27566;50.930;5.328;2023-06-26T13:28:03;5.35;;;2.72;;
41883;SDS011;27566;50.930;5.328;2023-06-26T13:30:29;6.45;;;1.65;;
41883;SDS011;27566;50.930;5.328;2023-06-26T13:32:56;6.97;;;1.83;;
41883;SDS011;27566;50.930;5.328;2023-06-26T13:35:21;14.18;;;3.13;;
41883;SDS011;27566;50.930;5.328;2023-06-26T13:37:48;5.78;;;2.28;;
41883;SDS011;27566;50.930;5.328;2023-06-26T13:40:14;10.10;;;2.58;;
41883;SDS011;27566;50.930;5.328;2023-06-26T13:42:40;6.80;;;2.50;;
41883;SDS011;27566;50.930;5.328;2023-06-26T13:45:07;6.80;;;1.50;;
41883;SDS011;27566;50.930;5.328;2023-06-26T13:47:33;5.43;;;2.13;;
41883;SDS011;27566;50.930;5.328;2023-06-26T13:50:06;9.20;;;2.20;;
41883;SDS011;27566;50.930;5.328;2023-06-26T13:52:33;5.30;;;1.88;;
41883;SDS011;27566;50.930;5.328;2023-06-26T13:54:59;4.75;;;1.55;;
41883;SDS011;27566;50.930;5.328;2023-06-26T13:57:25;12.00;;;6.80;;
41883;SDS011;27566;50.930;5.328;2023-06-26T13:59:53;6.07;;;2.25;;
41883;SDS011;27566;50.930;5.328;2023-06-26T14:02:19;11.70;;;5.57;;
41883;SDS011;27566;50.930;5.328;2023-06-26T14:04:45;4.40;;;2.08;;
41883;SDS011;27566;50.930;5.328;2023-06-26T14:07:11;5.40;;;1.95;;
41883;SDS011;27566;50.930;5.328;2023-06-26T14:09:37;5.78;;;1.95;;
41883;SDS011;27566;50.930;5.328;2023-06-26T14:12:03;3.45;;;1.60;;
41883;SDS011;27566;50.930;5.328;2023-06-26T14:14:29;5.80;;;2.35;;
41883;SDS011;27566;50.930;5.328;2023-06-26T14:16:55;4.22;;;1.50;;
41883;SDS011;27566;50.930;5.328;2023-06-26T14:19:21;3.15;;;1.83;;
41883;SDS011;27566;50.930;5.328;2023-06-26T14:21:47;5.40;;;2.13;;
41883;SDS011;27566;50.930;5.328;2023-06-26T14:24:12;4.35;;;1.70;;
41883;SDS011;27566;50.930;5.328;2023-06-26T14:26:38;5.72;;;1.70;;
41883;SDS011;27566;50.930;5.328;2023-06-26T14:29:04;22.23;;;14.15;;
41883;SDS011;27566;50.930;5.328;2023-06-26T14:31:31;6.55;;;2.50;;
41883;SDS011;27566;50.930;5.328;2023-06-26T14:33:57;17.98;;;3.20;;
41883;SDS011;27566;50.930;5.328;2023-06-26T14:36:24;8.02;;;2.10;;
41883;SDS011;27566;50.930;5.328;2023-06-26T14:38:51;38.13;;;7.07;;
41883;SDS011;27566;50.930;5.328;2023-06-26T14:41:17;6.00;;;1.67;;
41883;SDS011;27566;50.930;5.328;2023-06-26T14:43:43;3.33;;;1.45;;
41883;SDS011;27566;50.930;5.328;2023-06-26T14:46:10;10.55;;;2.92;;
41883;SDS011;27566;50.930;5.328;2023-06-26T14:48:37;4.55;;;1.70;;
41883;SDS011;27566;50.930;5.328;2023-06-26T14:51:03;4.60;;;1.48;;
41883;SDS011;27566;50.930;5.328;2023-06-26T14:53:29;6.20;;;2.80;;
41883;SDS011;27566;50.930;5.328;2023-06-26T14:55:55;45.83;;;7.35;;
41883;SDS011;27566;50.930;5.328;2023-06-26T14:58:21;5.70;;;2.03;;
41883;SDS011;27566;50.930;5.328;2023-06-26T15:00:47;15.23;;;3.45;;